Time;durP1;ratioP1;P1;durP2;ratioP2;P2;SDS_P1;SDS_P2;PMS_P1;PMS_P2;Temp;Humidity;BMP_temperature;BMP_pressure;BME280_temperature;BME280_humidity;BME280_pressure;Samples;Min_cycle;Max_cycle;Signal;HPM_P1;HPM_P2
2021/12/01 00:02:08;;;;;;;5.82;4.30;;;;;;;-3.67;55.91;93261.91;4981638;28;20048;-86
2021/12/01 00:04:33;;;;;;;4.13;3.22;;;;;;;-3.34;57.95;93429.28;4981162;28;20442;-84
2021/12/01 00:06:59;;;;;;;4.72;3.20;;;;;;;-2.73;57.91;93423.91;4982027;28;20038;-85
2021/12/01 00:09:25;;;;;;;5.20;4.15;;;;;;;-2.26;56.98;93400.03;4986997;28;20053;-85
2021/12/01 00:11:50;;;;;;;4.78;3.72;;;;;;;-3.80;58.60;93350.56;4987257;28;20670;-85
2021/12/01 00:14:16;;;;;;;4.45;3.55;;;;;;;-3.24;58.12;93406.03;4985128;28;20038;-85
2021/12/01 00:16:41;;;;;;;9.43;6.38;;;;;;;-3.65;60.17;93415.78;4983922;28;20664;-86
2021/12/01 00:19:07;;;;;;;6.85;4.93;;;;;;;-3.88;60.48;93410.72;4978257;28;20043;-85
2021/12/01 00:21:32;;;;;;;7.10;3.80;;;;;;;-3.37;60.32;93414.16;4966619;28;20076;-85
2021/12/01 00:23:58;;;;;;;6.72;5.50;;;;;;;-5.35;61.66;93208.22;4986477;28;20028;-85
2021/12/01 00:26:23;;;;;;;6.13;5.00;;;;;;;-4.52;62.17;93358.13;4981652;28;20048;-84
2021/12/01 00:28:49;;;;;;;5.10;4.10;;;;;;;-3.83;61.83;93423.00;4945035;28;20096;-86
2021/12/01 00:31:14;;;;;;;8.57;5.47;;;;;;;-3.63;60.51;93418.94;4983761;28;20092;-85
2021/12/01 00:33:41;;;;;;;3.17;2.88;;;;;;;-4.03;61.19;93374.88;4964697;28;20411;-84
2021/12/01 00:36:08;;;;;;;5.15;3.60;;;;;;;-3.12;59.57;93424.91;4981486;28;20052;-85
2021/12/01 00:38:35;;;;;;;5.03;3.78;;;;;;;-3.38;61.12;93436.75;4969041;28;20034;-85
2021/12/01 00:41:04;;;;;;;11.27;5.63;;;;;;;-4.14;62.13;93401.66;4964028;28;20038;-84
2021/12/01 00:43:30;;;;;;;4.25;3.70;;;;;;;-3.97;62.82;93385.34;4966250;28;20136;-85
2021/12/01 00:46:08;;;;;;;6.03;4.45;;;;;;;-4.25;60.69;93264.13;4967525;28;20042;-85
2021/12/01 00:48:34;;;;;;;6.05;4.68;;;;;;;-5.00;61.24;93251.38;4981977;28;20038;-85
2021/12/01 00:50:59;;;;;;;7.18;4.88;;;;;;;-3.75;61.91;93413.00;4961737;28;20084;-85
2021/12/01 00:53:25;;;;;;;4.65;3.45;;;;;;;-3.85;61.49;93368.66;4983040;28;20026;-85
2021/12/01 00:55:50;;;;;;;9.77;5.53;;;;;;;-3.83;62.06;93426.38;4965309;28;20050;-85
2021/12/01 00:58:16;;;;;;;7.72;4.63;;;;;;;-4.46;62.90;93310.50;4983447;28;20451;-85
2021/12/01 01:00:44;;;;;;;7.57;5.13;;;;;;;-4.47;61.90;93225.88;4980822;28;20047;-85
2021/12/01 01:03:09;;;;;;;6.20;3.55;;;;;;;-3.21;60.68;93389.94;4965905;28;20033;-85
2021/12/01 01:05:36;;;;;;;4.90;3.97;;;;;;;-3.37;60.80;93386.34;4982272;28;20026;-85
2021/12/01 01:08:01;;;;;;;5.45;3.45;;;;;;;-3.04;60.38;93374.31;4966986;28;20034;-85
2021/12/01 01:18:23;;;;;;;9.63;5.25;;;;;;;-4.91;64.45;93374.50;4981701;28;20490;-85
2021/12/01 01:20:49;;;;;;;8.88;5.78;;;;;;;-4.71;64.74;93346.34;4981564;28;20108;-85
2021/12/01 01:23:14;;;;;;;5.18;4.00;;;;;;;-4.39;66.20;93418.59;4981097;28;20041;-84
2021/12/01 01:25:40;;;;;;;5.00;3.78;;;;;;;-3.56;62.86;93408.38;4984514;28;20030;-85
2021/12/01 01:28:05;;;;;;;6.43;4.30;;;;;;;-3.92;63.60;93443.38;4962280;28;20132;-85
2021/12/01 01:30:31;;;;;;;6.50;4.57;;;;;;;-4.70;65.29;93379.06;4979378;28;20126;-85
2021/12/01 01:32:57;;;;;;;5.50;3.25;;;;;;;-4.50;65.56;93374.28;4966489;28;20180;-85
2021/12/01 01:35:23;;;;;;;7.22;4.38;;;;;;;-4.22;64.52;93403.84;4983298;28;20033;-85
2021/12/01 01:37:48;;;;;;;6.53;4.53;;;;;;;-4.44;63.33;93285.09;4979232;28;20035;-85
2021/12/01 01:40:15;;;;;;;5.55;4.70;;;;;;;-3.80;62.86;93386.94;4982476;28;20062;-84
2021/12/01 01:42:40;;;;;;;22.58;8.63;;;;;;;-3.02;61.53;93440.69;4979488;28;20039;-85
2021/12/01 01:45:06;;;;;;;10.43;5.32;;;;;;;-4.38;61.90;93248.84;4963812;28;20029;-85
2021/12/01 01:47:31;;;;;;;7.22;3.90;;;;;;;-2.99;60.72;93413.41;4981426;28;20089;-85
2021/12/01 01:50:02;;;;;;;5.45;4.60;;;;;;;-3.85;61.54;93300.31;4978331;28;20096;-85
2021/12/01 01:52:29;;;;;;;4.38;3.97;;;;;;;-3.65;61.67;93383.78;4978676;28;20105;-85
2021/12/01 01:54:55;;;;;;;5.85;3.95;;;;;;;-4.38;61.79;93218.47;4974685;28;20046;-85
2021/12/01 01:57:21;;;;;;;6.85;4.15;;;;;;;-4.40;62.60;93266.47;4980089;28;20042;-85
2021/12/01 01:59:46;;;;;;;6.30;4.55;;;;;;;-4.37;62.04;93323.09;4977321;28;20152;-85
2021/12/01 02:02:12;;;;;;;7.03;4.60;;;;;;;-4.89;64.73;93372.47;4967797;28;20222;-84
2021/12/01 02:04:38;;;;;;;4.25;3.60;;;;;;;-5.10;67.47;93404.16;4964978;28;20046;-85
2021/12/01 02:07:04;;;;;;;3.80;3.50;;;;;;;-4.92;66.87;93313.25;4981281;28;20045;-85
2021/12/01 02:09:30;;;;;;;4.22;3.28;;;;;;;-4.01;65.19;93388.41;4967624;28;20039;-85
2021/12/01 02:11:58;;;;;;;4.22;3.20;;;;;;;-3.73;62.44;93368.59;4964219;28;20149;-85
2021/12/01 02:14:25;;;;;;;3.60;3.30;;;;;;;-3.66;63.28;93377.03;4960900;28;20042;-84
2021/12/01 02:16:54;;;;;;;5.15;3.80;;;;;;;-3.64;61.86;93354.19;4972733;28;20458;-84
2021/12/01 02:19:20;;;;;;;6.78;4.13;;;;;;;-4.88;64.40;93249.53;4977721;28;20384;-84
2021/12/01 02:21:46;;;;;;;5.78;4.18;;;;;;;-4.37;65.05;93343.88;4964242;28;20034;-85
2021/12/01 02:24:14;;;;;;;5.88;4.03;;;;;;;-5.10;64.55;93204.53;4978457;28;20021;-86
2021/12/01 02:26:44;;;;;;;4.10;3.38;;;;;;;-4.10;64.40;93402.03;4962460;28;20096;-85
2021/12/01 02:29:12;;;;;;;4.50;3.20;;;;;;;-4.55;64.12;93222.88;4978164;28;20030;-85
2021/12/01 02:31:38;;;;;;;7.10;4.18;;;;;;;-4.16;64.11;93348.41;4976427;28;20046;-84
2021/12/01 02:34:07;;;;;;;9.18;5.20;;;;;;;-5.11;66.90;93237.44;4953209;28;20415;-84
2021/12/01 02:36:34;;;;;;;4.88;4.30;;;;;;;-4.36;66.34;93335.84;4958705;28;20655;-84
2021/12/01 02:39:02;;;;;;;6.25;3.60;;;;;;;-4.90;66.96;93293.88;4961196;28;20022;-84
2021/12/01 02:41:30;;;;;;;3.72;3.42;;;;;;;-5.07;65.67;93214.41;4960800;28;20467;-85
2021/12/01 02:43:57;;;;;;;12.18;6.13;;;;;;;-5.65;65.72;93106.56;4962115;28;20032;-85
2021/12/01 02:46:24;;;;;;;7.72;4.22;;;;;;;-4.80;68.15;93370.31;4960757;28;20034;-84
2021/12/01 02:48:50;;;;;;;3.65;3.15;;;;;;;-4.96;68.40;93299.16;4959805;28;20443;-84
2021/12/01 02:51:17;;;;;;;3.80;3.50;;;;;;;-4.51;68.79;93384.88;4957375;28;20033;-84
2021/12/01 02:53:43;;;;;;;7.68;4.00;;;;;;;-4.50;68.40;93371.69;4978638;28;20296;-84
2021/12/01 02:56:10;;;;;;;7.07;4.18;;;;;;;-5.57;69.17;93295.34;4956175;28;20054;-85
2021/12/01 02:58:40;;;;;;;5.70;4.43;;;;;;;-4.92;68.71;93368.50;4964172;28;20038;-85
2021/12/01 03:01:13;;;;;;;3.55;2.95;;;;;;;-5.67;67.72;93209.63;4959686;28;20039;-85
2021/12/01 03:03:40;;;;;;;6.40;4.20;;;;;;;-4.81;69.00;93374.69;4956360;28;20496;-85
2021/12/01 03:06:06;;;;;;;3.95;3.50;;;;;;;-6.20;70.88;93241.63;4960406;28;20030;-85
2021/12/01 03:08:33;;;;;;;10.13;4.72;;;;;;;-5.65;70.94;93320.78;4965013;28;20022;-85
2021/12/01 03:10:59;;;;;;;7.68;4.10;;;;;;;-5.14;71.40;93341.63;4959071;28;20043;-85
2021/12/01 03:13:25;;;;;;;8.82;3.17;;;;;;;-6.41;69.75;93119.78;4962934;28;20101;-86
2021/12/01 03:15:51;;;;;;;3.03;2.75;;;;;;;-5.44;69.50;93268.41;4963286;28;20035;-85
2021/12/01 03:18:17;;;;;;;3.45;3.15;;;;;;;-6.59;67.67;92985.41;4961495;28;20041;-84
2021/12/01 03:20:43;;;;;;;4.63;3.60;;;;;;;-3.85;66.15;93373.84;4960156;28;20019;-87
2021/12/01 03:23:10;;;;;;;3.42;3.15;;;;;;;-5.17;69.24;93312.78;4974545;28;20749;-85
2021/12/01 03:25:36;;;;;;;5.95;3.95;;;;;;;-4.35;67.64;93357.41;4961790;28;20042;-85
2021/12/01 03:28:03;;;;;;;3.75;3.10;;;;;;;-4.46;68.09;93403.94;4959933;28;20039;-85
2021/12/01 03:30:33;;;;;;;6.43;3.00;;;;;;;-4.37;67.88;93377.63;4968510;28;20121;-85
2021/12/01 03:33:00;;;;;;;5.72;3.95;;;;;;;-4.14;67.09;93411.28;4979755;28;20116;-85
2021/12/01 03:35:25;;;;;;;8.05;4.03;;;;;;;-4.76;67.72;93356.63;4979712;28;20421;-86
2021/12/01 03:37:51;;;;;;;4.85;3.05;;;;;;;-6.00;69.26;93237.91;4971289;28;20037;-85
2021/12/01 03:40:16;;;;;;;3.67;3.10;;;;;;;-4.44;68.93;93388.91;4967241;28;20057;-86
2021/12/01 03:42:44;;;;;;;6.07;4.00;;;;;;;-4.91;67.75;93265.56;4985717;28;20035;-85
2021/12/01 03:45:11;;;;;;;6.40;3.75;;;;;;;-4.19;67.68;93413.78;4983184;28;21147;-85
2021/12/01 03:47:37;;;;;;;10.13;4.20;;;;;;;-3.73;66.90;93413.56;4966348;28;20022;-85
2021/12/01 03:50:04;;;;;;;9.05;4.70;;;;;;;-3.84;66.73;93405.81;4985830;28;20106;-85
2021/12/01 03:52:30;;;;;;;3.70;3.25;;;;;;;-4.14;66.82;93364.53;4985575;28;20034;-85
2021/12/01 03:54:55;;;;;;;4.13;3.35;;;;;;;-5.25;65.77;93106.53;4969944;28;20048;-85
2021/12/01 03:57:21;;;;;;;4.32;3.20;;;;;;;-4.69;65.09;93186.06;4983260;28;20030;-86
2021/12/01 03:59:47;;;;;;;4.30;2.95;;;;;;;-3.42;65.06;93362.06;4973145;28;20029;-86
2021/12/01 04:02:13;;;;;;;1.60;1.50;;;;;;;-4.11;66.00;93196.06;4986109;28;20125;-86
2021/12/01 04:04:38;;;;;;;3.28;2.53;;;;;;;-3.49;63.52;93210.66;4981639;28;20444;-87
2021/12/01 04:07:04;;;;;;;1.20;1.20;;;;;;;-3.04;63.54;93198.19;4958929;28;20041;-86
2021/12/01 04:09:32;;;;;;;1.42;1.27;;;;;;;-3.60;61.88;93027.81;4981177;28;20069;-86
2021/12/01 04:11:57;;;;;;;2.10;1.33;;;;;;;-1.01;60.52;93334.31;4984776;28;20053;-86
2021/12/01 04:14:24;;;;;;;1.27;1.20;;;;;;;-2.12;60.15;93091.19;4984874;28;20168;-87
2021/12/01 04:16:49;;;;;;;1.00;1.00;;;;;;;-1.06;59.16;93206.41;4965659;28;20061;-87
2021/12/01 04:19:15;;;;;;;1.85;1.50;;;;;;;-0.03;58.41;93341.47;4984376;28;20441;-87
2021/12/01 04:21:41;;;;;;;1.63;1.52;;;;;;;-1.00;56.49;93147.97;4970077;28;20096;-86
2021/12/01 04:24:07;;;;;;;2.40;1.20;;;;;;;-1.64;55.86;93030.13;4983364;28;20497;-87
2021/12/01 04:26:34;;;;;;;1.25;1.15;;;;;;;-1.54;54.89;92977.22;4984667;28;20080;-86
2021/12/01 04:29:02;;;;;;;1.48;1.40;;;;;;;0.15;54.59;93229.34;4966048;28;20080;-86
2021/12/01 04:31:29;;;;;;;0.93;0.93;;;;;;;0.94;53.47;93314.25;4967935;28;20050;-87
2021/12/01 04:33:58;;;;;;;1.45;1.35;;;;;;;1.00;53.99;93292.25;4982336;28;20633;-87
2021/12/01 04:36:31;;;;;;;1.80;1.13;;;;;;;0.50;54.40;93214.63;4984110;28;20108;-86
2021/12/01 04:38:57;;;;;;;4.15;2.50;;;;;;;0.77;53.27;93283.94;4983497;28;20037;-86
2021/12/01 04:41:23;;;;;;;1.10;1.10;;;;;;;0.84;54.34;93257.47;4983664;28;20399;-87
2021/12/01 04:43:49;;;;;;;0.82;0.82;;;;;;;1.46;53.68;93353.94;4982835;28;20031;-87
2021/12/01 04:46:16;;;;;;;1.20;1.10;;;;;;;1.36;52.88;93301.59;4984247;28;20550;-88
2021/12/01 04:48:43;;;;;;;1.00;1.00;;;;;;;0.25;53.86;93129.16;4976641;28;20570;-88
2021/12/01 04:51:08;;;;;;;0.90;0.90;;;;;;;0.29;53.52;93130.19;4960404;28;20061;-87
2021/12/01 04:53:35;;;;;;;1.20;1.10;;;;;;;1.53;53.35;93354.44;4986750;28;20141;-87
2021/12/01 04:56:00;;;;;;;1.17;1.08;;;;;;;-0.39;54.16;93016.66;4980277;28;20116;-86
2021/12/01 04:58:27;;;;;;;1.65;1.33;;;;;;;1.57;53.58;93318.00;4979913;28;20495;-87
2021/12/01 05:00:53;;;;;;;1.65;1.50;;;;;;;0.89;53.58;93259.31;4979897;28;20057;-87
2021/12/01 05:03:19;;;;;;;6.03;1.60;;;;;;;1.39;53.92;93335.09;4982689;28;20515;-87
2021/12/01 05:05:45;;;;;;;1.40;1.30;;;;;;;1.27;52.69;93303.19;4981553;28;20023;-87
2021/12/01 05:08:12;;;;;;;1.73;1.35;;;;;;;0.84;52.82;93238.38;4969020;28;20725;-86
2021/12/01 05:10:38;;;;;;;1.10;1.05;;;;;;;1.65;52.55;93370.66;4980766;28;20053;-86
2021/12/01 05:13:03;;;;;;;1.10;1.00;;;;;;;0.86;53.54;93239.66;4983136;28;20619;-86
2021/12/01 05:15:29;;;;;;;1.05;1.05;;;;;;;1.35;53.45;93314.94;4981937;28;20045;-86
2021/12/01 05:17:55;;;;;;;1.17;1.17;;;;;;;1.17;52.88;93300.59;4967353;28;20025;-86
2021/12/01 05:20:20;;;;;;;1.63;1.52;;;;;;;1.04;52.74;93309.00;4980308;28;20038;-87
2021/12/01 05:22:46;;;;;;;1.33;1.23;;;;;;;0.29;52.84;93227.75;4968631;28;20046;-87
2021/12/01 05:25:11;;;;;;;1.30;1.30;;;;;;;1.69;53.60;93412.84;4982865;28;20060;-87
2021/12/01 05:27:37;;;;;;;2.05;1.20;;;;;;;0.31;54.35;93243.16;4981589;28;20042;-87
2021/12/01 05:30:05;;;;;;;1.35;1.27;;;;;;;0.79;54.10;93263.50;4980159;28;20140;-87
2021/12/01 05:32:31;;;;;;;1.10;1.10;;;;;;;1.01;53.97;93336.50;4980338;28;20409;-87
2021/12/01 05:34:57;;;;;;;2.63;1.05;;;;;;;1.67;53.67;93386.88;4982095;28;20104;-86
2021/12/01 05:37:23;;;;;;;0.98;0.98;;;;;;;1.70;54.57;93390.03;4976692;28;20232;-87
2021/12/01 05:39:49;;;;;;;1.50;1.40;;;;;;;1.31;54.29;93351.38;4960795;28;20046;-86
2021/12/01 05:42:16;;;;;;;1.13;1.13;;;;;;;1.75;54.01;93400.50;4966393;28;20369;-87
2021/12/01 05:44:42;;;;;;;1.35;1.25;;;;;;;1.80;54.19;93379.50;4966551;28;20390;-85
2021/12/01 05:47:08;;;;;;;1.15;1.10;;;;;;;1.56;55.07;93353.91;4984371;28;20046;-85
2021/12/01 05:49:40;;;;;;;1.25;1.15;;;;;;;1.72;54.07;93351.25;4977552;28;20104;-84
2021/12/01 05:52:07;;;;;;;1.30;1.20;;;;;;;1.80;54.31;93392.63;4964412;28;20034;-85
2021/12/01 05:54:33;;;;;;;0.93;0.93;;;;;;;1.72;53.68;93366.97;4982309;28;20618;-84
2021/12/01 05:56:58;;;;;;;1.30;1.20;;;;;;;1.91;53.19;93386.31;4980591;28;20117;-84
2021/12/01 05:59:24;;;;;;;1.02;1.02;;;;;;;1.06;53.40;93270.25;4982158;28;20061;-85
2021/12/01 06:01:49;;;;;;;1.67;1.38;;;;;;;1.79;53.78;93414.63;4966146;28;20030;-86
2021/12/01 06:04:15;;;;;;;1.38;1.05;;;;;;;0.70;54.12;93212.75;4984848;28;20041;-85
2021/12/01 06:06:40;;;;;;;1.08;1.08;;;;;;;1.89;54.45;93419.88;4979520;28;20392;-84
2021/12/01 06:09:06;;;;;;;1.95;1.40;;;;;;;1.88;54.31;93399.94;4983315;28;20034;-85
2021/12/01 06:11:31;;;;;;;1.60;1.30;;;;;;;1.84;54.62;93407.53;4977978;28;20046;-84
2021/12/01 06:13:57;;;;;;;1.10;1.00;;;;;;;1.62;54.28;93328.44;4980544;28;20088;-86
2021/12/01 06:16:23;;;;;;;1.55;1.20;;;;;;;1.54;54.56;93371.75;4979630;28;20133;-84
2021/12/01 06:18:49;;;;;;;2.22;1.17;;;;;;;1.43;54.99;93362.34;4981467;28;20041;-85
2021/12/01 06:21:16;;;;;;;1.52;1.13;;;;;;;1.98;53.97;93413.03;4966311;28;20030;-85
2021/12/01 06:23:42;;;;;;;1.50;1.40;;;;;;;0.66;53.68;93203.88;4978312;28;20031;-83
2021/12/01 06:26:07;;;;;;;1.25;1.17;;;;;;;-0.25;53.79;93077.75;4982504;28;20042;-85
2021/12/01 06:28:33;;;;;;;1.58;1.13;;;;;;;0.62;54.12;93226.38;4981619;28;20629;-84
2021/12/01 06:30:58;;;;;;;0.90;0.90;;;;;;;1.17;54.60;93292.75;4962426;28;20133;-85
2021/12/01 06:33:24;;;;;;;1.05;0.90;;;;;;;1.02;54.28;93274.47;4964135;28;20046;-84
2021/12/01 06:35:51;;;;;;;0.90;0.90;;;;;;;2.02;54.26;93419.28;4980691;28;20027;-85
2021/12/01 06:38:18;;;;;;;0.88;0.88;;;;;;;2.07;53.52;93406.16;4980275;28;20053;-86
2021/12/01 06:40:45;;;;;;;1.20;1.10;;;;;;;2.18;53.74;93475.91;4978115;28;20038;-86
2021/12/01 06:43:11;;;;;;;3.17;1.63;;;;;;;2.00;54.39;93484.38;4981152;28;20124;-86
2021/12/01 06:45:36;;;;;;;1.20;1.20;;;;;;;2.04;54.45;93427.69;4963121;28;20100;-86
2021/12/01 06:48:02;;;;;;;1.23;1.13;;;;;;;2.35;53.58;93455.34;4976698;28;20116;-86
2021/12/01 06:50:27;;;;;;;1.20;1.10;;;;;;;1.51;53.62;93335.59;4962220;28;20434;-86
2021/12/01 06:52:54;;;;;;;1.33;1.23;;;;;;;2.27;53.96;93481.38;4974726;28;20052;-86
2021/12/01 06:55:21;;;;;;;2.75;1.10;;;;;;;2.33;53.29;93452.22;4960445;28;20046;-86
2021/12/01 06:57:47;;;;;;;1.15;0.98;;;;;;;2.57;53.16;93512.72;4973370;28;20388;-85
2021/12/01 07:00:14;;;;;;;17.30;5.85;;;;;;;2.38;51.75;93530.13;4979684;28;20032;-85
2021/12/01 07:02:40;;;;;;;9.05;5.70;;;;;;;0.47;53.46;93469.72;4974943;28;20089;-86
2021/12/01 07:05:09;;;;;;;6.80;4.30;;;;;;;0.95;53.18;93491.25;4965344;28;20416;-85
2021/12/01 07:07:34;;;;;;;5.53;3.63;;;;;;;-0.89;54.80;93315.06;4976899;28;20042;-85
2021/12/01 07:10:00;;;;;;;7.40;5.25;;;;;;;-0.47;54.57;93354.13;4980321;28;20031;-85
2021/12/01 07:12:26;;;;;;;7.65;5.13;;;;;;;0.19;56.21;93491.09;4980253;28;20065;-85
2021/12/01 07:14:52;;;;;;;8.43;5.63;;;;;;;-0.09;57.48;93477.38;4965305;28;20504;-87
2021/12/01 07:17:18;;;;;;;5.60;4.22;;;;;;;0.03;57.87;93510.38;4966305;28;20070;-86
2021/12/01 07:19:46;;;;;;;12.18;5.57;;;;;;;-0.00;58.04;93445.53;4967473;28;20046;-85
2021/12/01 07:22:12;;;;;;;5.10;4.47;;;;;;;0.06;58.23;93496.78;4984200;28;20386;-86
2021/12/01 07:24:37;;;;;;;10.45;5.85;;;;;;;0.01;57.31;93509.88;4983335;28;20255;-86
2021/12/01 07:27:03;;;;;;;10.02;5.65;;;;;;;-0.02;58.74;93485.00;4965560;28;20524;-86
2021/12/01 07:29:30;;;;;;;8.15;5.28;;;;;;;-0.17;56.63;93430.84;4974532;28;20322;-85
2021/12/01 07:31:55;;;;;;;8.63;5.65;;;;;;;-0.00;58.33;93466.47;4970675;28;20039;-85
2021/12/01 07:34:21;;;;;;;4.32;2.50;;;;;;;0.75;58.10;93503.28;4984303;28;20606;-86
2021/12/01 07:36:47;;;;;;;7.47;4.88;;;;;;;0.91;56.26;93506.72;4986173;28;20068;-86
2021/12/01 07:39:12;;;;;;;32.67;11.90;;;;;;;0.31;55.61;93507.34;4984620;28;20079;-85
2021/12/01 07:41:38;;;;;;;8.85;5.80;;;;;;;0.08;57.44;93479.81;4982752;28;20541;-86
2021/12/01 07:44:04;;;;;;;5.88;4.53;;;;;;;0.58;55.96;93478.41;4983841;28;20034;-86
2021/12/01 07:46:29;;;;;;;4.18;3.10;;;;;;;0.72;57.83;93485.50;4969324;28;20550;-87
2021/12/01 07:48:57;;;;;;;7.50;4.88;;;;;;;0.79;56.46;93517.41;4964750;28;20525;-87
2021/12/01 07:51:23;;;;;;;9.38;5.90;;;;;;;-0.34;57.28;93452.97;4967115;28;20113;-87
2021/12/01 07:53:49;;;;;;;9.43;6.15;;;;;;;-0.38;56.50;93366.44;4967186;28;20542;-86
2021/12/01 07:56:15;;;;;;;6.47;4.20;;;;;;;0.23;57.27;93500.00;4980141;28;20041;-86
2021/12/01 07:58:40;;;;;;;4.13;2.22;;;;;;;0.96;57.95;93558.31;4967042;28;20038;-87
2021/12/01 08:01:05;;;;;;;13.13;8.85;;;;;;;-0.87;58.17;93397.28;4979637;28;20534;-86
2021/12/01 08:03:31;;;;;;;11.57;6.13;;;;;;;-0.27;59.04;93566.69;4985603;28;20049;-87
2021/12/01 08:05:57;;;;;;;9.85;6.13;;;;;;;-0.45;59.60;93491.31;4983372;28;20018;-86
2021/12/01 08:08:23;;;;;;;4.65;3.30;;;;;;;-0.30;59.89;93454.03;4987127;28;20035;-86
2021/12/01 08:10:48;;;;;;;9.68;3.17;;;;;;;0.43;60.33;93497.47;4965046;28;20146;-86
2021/12/01 08:13:14;;;;;;;7.90;4.60;;;;;;;1.48;56.88;93545.75;4982562;28;20476;-86
2021/12/01 08:15:39;;;;;;;10.85;7.28;;;;;;;0.90;55.40;93556.72;4980961;28;20122;-86
2021/12/01 08:18:05;;;;;;;16.20;6.47;;;;;;;-0.04;57.33;93429.56;4979948;28;20473;-86
2021/12/01 08:20:30;;;;;;;16.30;6.20;;;;;;;-0.03;57.96;93519.22;4964607;28;20026;-86
2021/12/01 08:22:56;;;;;;;13.43;5.97;;;;;;;-0.23;58.39;93418.78;4977332;28;20034;-86
2021/12/01 08:25:22;;;;;;;10.80;6.20;;;;;;;0.65;57.78;93592.25;4979073;28;20053;-85
2021/12/01 08:27:48;;;;;;;12.90;7.47;;;;;;;-0.70;59.58;93502.38;4964779;28;20460;-86
2021/12/01 08:30:14;;;;;;;11.02;5.68;;;;;;;-0.73;60.12;93554.34;4981997;28;20042;-86
2021/12/01 08:32:45;;;;;;;7.57;5.70;;;;;;;-1.40;59.66;93385.19;4978764;28;20462;-86
2021/12/01 08:35:12;;;;;;;10.18;5.70;;;;;;;-0.82;60.33;93542.75;4965051;28;20041;-86
2021/12/01 08:37:38;;;;;;;11.70;5.72;;;;;;;-1.68;59.83;93351.59;4980767;28;20065;-86
2021/12/01 08:40:03;;;;;;;21.02;10.30;;;;;;;-0.77;61.01;93568.91;4979954;28;20464;-86
2021/12/01 08:42:29;;;;;;;13.52;7.55;;;;;;;-0.52;60.52;93564.69;4963218;28;20440;-86
2021/12/01 08:44:54;;;;;;;14.80;9.52;;;;;;;-0.32;60.76;93553.59;4978673;28;20092;-87
2021/12/01 08:47:24;;;;;;;10.23;5.57;;;;;;;-1.09;58.79;93384.38;4980460;28;20068;-86
2021/12/01 08:49:51;;;;;;;4.65;3.25;;;;;;;-2.02;59.60;93211.09;4979526;28;20045;-86
2021/12/01 08:52:16;;;;;;;10.18;5.78;;;;;;;-0.27;59.05;93532.72;4957472;28;20129;-86
2021/12/01 08:54:42;;;;;;;9.05;5.38;;;;;;;-0.28;58.75;93460.56;4966051;28;20042;-85
2021/12/01 08:57:07;;;;;;;8.32;5.75;;;;;;;0.10;59.25;93539.72;4978559;28;20061;-87
2021/12/01 08:59:34;;;;;;;16.10;6.53;;;;;;;0.30;59.34;93563.34;4958177;28;20772;-86
2021/12/01 09:02:02;;;;;;;8.02;5.43;;;;;;;-0.10;58.96;93475.84;4981800;28;20128;-86
2021/12/01 09:04:29;;;;;;;19.00;6.25;;;;;;;0.28;58.43;93474.66;4980962;28;20151;-86
2021/12/01 09:06:56;;;;;;;15.60;6.70;;;;;;;0.86;57.30;93574.00;4979549;28;20053;-86
2021/12/01 09:09:22;;;;;;;17.95;7.80;;;;;;;0.62;57.71;93516.88;4981317;28;20200;-86
2021/12/01 09:11:50;;;;;;;7.78;5.30;;;;;;;0.99;58.03;93560.38;4980200;28;20676;-86
2021/12/01 09:14:16;;;;;;;17.80;6.43;;;;;;;0.93;57.36;93577.16;4980791;28;20041;-86
2021/12/01 09:16:42;;;;;;;11.88;7.60;;;;;;;-0.51;58.74;93466.19;4979277;28;20038;-86
2021/12/01 09:19:09;;;;;;;15.13;7.00;;;;;;;0.41;59.35;93545.84;4968842;28;20043;-86
2021/12/01 09:21:35;;;;;;;13.13;8.10;;;;;;;0.26;59.55;93576.13;4965533;28;20684;-86
2021/12/01 09:24:01;;;;;;;19.48;6.72;;;;;;;-0.21;60.58;93568.28;4953384;28;20027;-86
2021/12/01 09:26:26;;;;;;;9.93;6.72;;;;;;;-0.40;61.73;93592.47;4961129;28;20091;-86
2021/12/01 09:28:52;;;;;;;14.90;8.00;;;;;;;-0.83;62.56;93488.97;4974047;28;20042;-86
2021/12/01 09:31:17;;;;;;;14.52;6.65;;;;;;;-0.35;61.83;93501.84;4963685;28;20068;-86
2021/12/01 09:33:43;;;;;;;13.60;7.13;;;;;;;-0.61;59.93;93393.78;4974763;28;20046;-86
2021/12/01 09:36:09;;;;;;;11.80;6.63;;;;;;;-0.18;60.54;93522.56;4966043;28;20018;-86
2021/12/01 09:38:34;;;;;;;16.55;7.25;;;;;;;-0.53;59.17;93400.34;4966077;28;20033;-86
2021/12/01 09:41:00;;;;;;;11.02;6.88;;;;;;;0.59;59.96;93601.16;4959026;28;20461;-86
2021/12/01 09:43:29;;;;;;;14.55;8.13;;;;;;;-0.43;59.99;93426.53;4963241;28;20050;-86
2021/12/01 09:45:56;;;;;;;14.35;8.52;;;;;;;0.78;60.66;93557.75;4979021;28;20052;-86
2021/12/01 09:48:22;;;;;;;14.13;7.88;;;;;;;0.99;60.03;93563.00;4984686;28;20042;-85
2021/12/01 09:50:48;;;;;;;11.32;8.25;;;;;;;0.46;60.01;93504.00;4981849;28;20034;-86
2021/12/01 09:53:14;;;;;;;12.75;8.13;;;;;;;-0.42;59.57;93395.97;4968435;28;20039;-86
2021/12/01 09:55:43;;;;;;;13.50;8.00;;;;;;;0.48;59.99;93573.34;4981249;28;20053;-86
2021/12/01 09:58:15;;;;;;;15.20;7.63;;;;;;;-0.84;60.79;93435.97;4982751;28;20077;-86
2021/12/01 10:00:45;;;;;;;12.73;6.70;;;;;;;-0.85;60.78;93450.06;4976898;28;20061;-86
2021/12/01 10:03:11;;;;;;;12.25;7.20;;;;;;;-1.24;61.54;93352.19;4979183;28;20026;-86
2021/12/01 10:05:52;;;;;;;15.43;6.88;;;;;;;0.77;60.43;93566.66;4980121;28;20072;-86
2021/12/01 10:08:25;;;;;;;10.77;6.75;;;;;;;0.26;61.20;93546.56;4964789;28;20038;-85
2021/12/01 10:10:53;;;;;;;11.13;6.22;;;;;;;0.93;60.10;93564.06;4976733;28;20045;-86
2021/12/01 10:13:30;;;;;;;12.23;7.75;;;;;;;0.55;60.39;93560.81;4970905;28;20041;-84
2021/12/01 10:15:58;;;;;;;13.93;8.10;;;;;;;1.05;60.80;93557.53;4959161;28;20092;-86
2021/12/01 10:18:25;;;;;;;16.50;8.05;;;;;;;0.50;59.54;93450.88;4961311;28;20133;-85
2021/12/01 10:21:24;;;;;;;13.70;7.95;;;;;;;0.21;60.30;93394.84;4974276;28;20032;-86
2021/12/01 10:23:56;;;;;;;18.80;8.07;;;;;;;1.50;59.13;93572.50;4976892;28;20057;-86
2021/12/01 10:26:31;;;;;;;13.40;8.80;;;;;;;0.22;60.13;93412.91;4983675;28;20121;-86
2021/12/01 10:29:05;;;;;;;14.32;8.13;;;;;;;1.16;60.02;93521.66;4972444;28;20545;-86
2021/12/01 10:31:38;;;;;;;15.57;8.32;;;;;;;1.59;59.73;93554.41;4976639;28;20057;-86
2021/12/01 10:34:13;;;;;;;15.88;7.95;;;;;;;1.52;59.63;93565.16;4978499;28;20042;-86
2021/12/01 10:36:39;;;;;;;16.58;7.68;;;;;;;1.41;59.46;93545.25;4960257;28;20128;-86
2021/12/01 10:39:05;;;;;;;13.48;8.50;;;;;;;0.87;60.33;93533.69;4956807;28;20399;-86
2021/12/01 10:41:36;;;;;;;12.32;7.13;;;;;;;0.96;60.18;93511.16;4975933;28;20096;-85
2021/12/01 10:44:09;;;;;;;14.57;8.48;;;;;;;0.21;59.98;93431.47;4974525;28;20515;-86
2021/12/01 10:46:50;;;;;;;13.32;7.15;;;;;;;1.83;59.46;93568.53;4976570;28;20112;-85
2021/12/01 10:49:31;;;;;;;20.42;10.25;;;;;;;1.60;59.29;93553.38;4956419;28;20124;-85
2021/12/01 10:51:56;;;;;;;17.42;8.57;;;;;;;1.12;59.33;93426.31;4978322;28;20333;-85
2021/12/01 10:54:21;;;;;;;16.60;7.65;;;;;;;2.26;57.80;93545.38;4979044;28;20454;-86
2021/12/01 10:57:17;;;;;;;16.15;8.02;;;;;;;1.73;58.11;93538.94;4976758;28;20442;-86
2021/12/01 10:59:48;;;;;;;12.27;6.38;;;;;;;1.52;58.07;93473.41;4960186;28;20414;-86
2021/12/01 11:02:16;;;;;;;15.52;8.70;;;;;;;1.65;58.03;93438.81;4972139;28;20412;-85
2021/12/01 11:04:49;;;;;;;15.30;7.50;;;;;;;-0.01;56.49;93193.00;4971303;28;20039;-85
2021/12/01 11:07:29;;;;;;;14.13;8.45;;;;;;;1.90;58.77;93537.63;4956560;28;20046;-85
2021/12/01 11:10:14;;;;;;;16.83;8.65;;;;;;;1.59;58.05;93483.63;4971742;28;20057;-85
2021/12/01 11:12:40;;;;;;;9.85;6.05;;;;;;;1.48;58.52;93537.91;4976244;28;20050;-85
2021/12/01 11:15:20;;;;;;;11.57;6.65;;;;;;;1.78;58.21;93533.66;4976429;28;20547;-85
2021/12/01 11:17:47;;;;;;;10.25;7.75;;;;;;;1.91;57.43;93530.56;4948694;28;20455;-85
2021/12/01 11:20:32;;;;;;;18.23;8.20;;;;;;;1.63;58.31;93485.47;4971538;28;20046;-84
2021/12/01 11:23:21;;;;;;;98.38;47.88;;;;;;;2.23;57.90;93525.72;4974481;28;20039;-85
2021/12/01 11:26:05;;;;;;;9.88;6.72;;;;;;;1.81;58.92;93506.94;4958387;28;20357;-84
2021/12/01 11:28:32;;;;;;;12.63;7.72;;;;;;;2.27;57.74;93500.53;4970452;28;20454;-85
2021/12/01 11:31:00;;;;;;;23.92;9.30;;;;;;;2.82;57.17;93506.56;4974570;28;20053;-84
2021/12/01 11:33:27;;;;;;;13.90;7.55;;;;;;;2.13;58.40;93502.16;4971022;28;20064;-84
2021/12/01 11:35:58;;;;;;;13.75;7.75;;;;;;;2.44;57.64;93501.00;4972586;28;20034;-84
2021/12/01 11:38:27;;;;;;;15.68;7.85;;;;;;;2.47;58.39;93481.28;4963553;28;20051;-83
2021/12/01 11:40:54;;;;;;;18.42;8.23;;;;;;;2.12;56.73;93314.31;4958327;28;20444;-83
2021/12/01 11:43:23;;;;;;;18.65;7.35;;;;;;;3.42;56.07;93486.94;4959575;28;20088;-84